createdAt,value
2018-07-15T00:01:18.458Z,20.60
2018-07-15T00:03:48.701Z,20.70
2018-07-15T00:06:18.062Z,20.80
2018-07-15T00:26:53.063Z,21.50
2018-07-15T00:29:22.355Z,21.60
2018-07-15T00:31:51.598Z,21.70
2018-07-15T00:34:20.816Z,21.70
2018-07-15T00:36:50.304Z,21.70
2018-07-15T00:39:20.965Z,21.70
2018-07-15T00:41:51.160Z,21.70
2018-07-15T00:44:20.579Z,21.70
2018-07-15T00:46:49.761Z,21.60
2018-07-15T00:49:19.243Z,21.60
2018-07-15T00:51:48.486Z,21.50
2018-07-15T00:54:18.755Z,21.50
2018-07-15T00:56:48.001Z,21.50
2018-07-15T00:59:17.197Z,21.50
2018-07-15T01:01:46.513Z,21.50
2018-07-15T01:04:15.666Z,21.40
2018-07-15T01:06:44.926Z,21.40
2018-07-15T01:09:15.668Z,21.50
2018-07-15T01:11:44.998Z,21.40
2018-07-15T01:14:15.722Z,21.40
2018-07-15T01:16:44.927Z,21.40
2018-07-15T01:19:14.295Z,21.30
2018-07-15T01:21:43.524Z,21.30
2018-07-15T01:24:12.808Z,21.20
2018-07-15T01:26:42.005Z,21.20
2018-07-15T01:29:11.271Z,21.20
2018-07-15T01:31:40.550Z,21.30
2018-07-15T01:34:09.814Z,21.30
2018-07-15T01:36:39.679Z,21.30
2018-07-15T01:39:08.947Z,21.20
2018-07-15T01:41:38.258Z,21.20
2018-07-15T01:44:07.561Z,21.20
2018-07-15T01:46:37.579Z,21.20
2018-07-15T01:49:07.180Z,21.10
2018-07-15T01:51:36.565Z,21.10
2018-07-15T01:54:06.014Z,21.00
2018-07-15T01:56:35.868Z,21.00
2018-07-15T02:17:10.639Z,20.80
2018-07-15T02:19:40.041Z,20.90
2018-07-15T02:22:10.040Z,20.80
2018-07-15T02:24:39.330Z,20.80
2018-07-15T02:27:09.135Z,20.70
2018-07-15T02:29:39.006Z,20.70
2018-07-15T02:32:08.281Z,20.60
2018-07-15T02:34:38.196Z,20.60
2018-07-15T02:37:07.440Z,20.60
2018-07-15T02:39:36.646Z,20.60
2018-07-15T02:42:05.997Z,20.60
2018-07-15T02:44:35.222Z,20.60
2018-07-15T02:47:04.481Z,20.60
2018-07-15T02:49:33.990Z,20.60
2018-07-15T02:52:03.220Z,20.50
2018-07-15T02:54:32.601Z,20.50
2018-07-15T02:57:01.919Z,20.40
2018-07-15T02:59:31.523Z,20.40
2018-07-15T03:02:00.709Z,20.40
2018-07-15T03:22:35.465Z,19.70
2018-07-15T03:25:04.692Z,19.60
2018-07-15T03:27:33.943Z,19.60
2018-07-15T03:30:03.549Z,19.40
2018-07-15T03:32:32.788Z,19.40
2018-07-15T03:35:02.017Z,19.50
2018-07-15T03:55:37.749Z,19.20
2018-07-15T03:58:08.133Z,19.10
2018-07-15T04:00:37.566Z,19.00
2018-07-15T04:03:07.813Z,18.80
2018-07-15T04:05:37.606Z,18.80
2018-07-15T04:08:07.368Z,18.80
2018-07-15T04:10:37.281Z,18.70
2018-07-15T04:13:06.656Z,18.60
2018-07-15T04:15:36.785Z,18.60
2018-07-15T04:18:06.993Z,18.60
2018-07-15T04:20:37.253Z,18.50
2018-07-15T04:23:07.142Z,18.50
2018-07-15T04:25:36.565Z,18.50
2018-07-15T04:28:05.925Z,18.50
2018-07-15T04:30:36.020Z,18.40
2018-07-15T04:33:05.578Z,18.50
2018-07-15T04:35:34.813Z,18.60
2018-07-15T04:38:04.085Z,18.60
2018-07-15T04:40:33.389Z,18.60
2018-07-15T04:43:02.702Z,18.60
2018-07-15T04:45:32.990Z,18.70
2018-07-15T05:06:08.387Z,18.80
2018-07-15T05:08:37.645Z,18.80
2018-07-15T05:11:06.963Z,18.80
2018-07-15T05:16:05.092Z,18.80
2018-07-15T05:18:34.397Z,18.80
2018-07-15T05:21:03.789Z,18.90
2018-07-15T05:23:33.152Z,19.00
2018-07-15T05:44:07.904Z,19.40
2018-07-15T05:46:37.203Z,19.60
2018-07-15T05:49:06.472Z,19.60
2018-07-15T06:09:41.340Z,19.20
2018-07-15T06:30:15.448Z,19.60
2018-07-15T06:32:44.738Z,19.80
2018-07-15T06:35:14.022Z,19.80
2018-07-15T06:37:43.314Z,19.90
2018-07-15T06:40:12.605Z,20.00
2018-07-15T06:42:42.517Z,20.00
2018-07-15T06:45:12.046Z,20.10
2018-07-15T06:47:41.803Z,20.30
2018-07-15T06:50:11.142Z,20.40
2018-07-15T06:52:40.989Z,20.40
2018-07-15T07:13:15.375Z,20.90
2018-07-15T07:15:45.503Z,20.90
2018-07-15T07:36:20.529Z,21.00
2018-07-15T07:38:50.748Z,21.00
2018-07-15T07:59:25.262Z,21.50
2018-07-15T08:01:54.535Z,21.60
2018-07-15T08:04:24.649Z,21.70
2018-07-15T08:06:53.931Z,21.70
2018-07-15T08:09:23.288Z,21.90
2018-07-15T08:30:08.903Z,22.10
2018-07-15T08:50:42.676Z,22.60
2018-07-15T08:53:12.426Z,22.60
2018-07-15T08:55:41.706Z,22.60
2018-07-15T09:16:15.516Z,23.20
2018-07-15T09:18:44.690Z,23.30
2018-07-15T09:21:14.042Z,23.30
2018-07-15T09:23:44.318Z,23.30
2018-07-15T09:44:20.113Z,23.70
2018-07-15T09:46:50.537Z,23.80
2018-07-15T09:49:20.499Z,23.80
2018-07-15T09:51:50.338Z,23.80
2018-07-15T09:54:19.505Z,23.90
2018-07-15T09:56:48.729Z,23.90
2018-07-15T10:01:48.574Z,23.90
2018-07-15T10:04:18.426Z,24.00
2018-07-15T10:06:47.765Z,24.10
2018-07-15T10:09:17.031Z,24.20
2018-07-15T10:29:51.199Z,24.50
2018-07-15T10:32:20.405Z,24.60
2018-07-15T10:34:49.691Z,24.50
2018-07-15T10:37:18.943Z,24.50
2018-07-15T10:39:48.155Z,24.80
2018-07-15T10:42:18.073Z,24.90
2018-07-15T10:44:48.243Z,24.90
2018-07-15T10:47:18.687Z,25.20
2018-07-15T10:49:47.966Z,25.30
2018-07-15T10:52:17.260Z,25.30
2018-07-15T11:12:50.880Z,25.30
2018-07-15T11:15:20.142Z,25.20
2018-07-15T11:17:50.090Z,25.40
2018-07-15T11:20:20.041Z,25.50
2018-07-15T11:22:49.654Z,25.50
2018-07-15T11:25:19.040Z,25.50
2018-07-15T11:27:48.851Z,25.70
2018-07-15T11:30:18.087Z,25.80
2018-07-15T11:32:47.365Z,25.90
2018-07-15T11:35:16.641Z,25.90
2018-07-15T11:37:45.862Z,26.00
2018-07-15T11:40:15.248Z,26.10
2018-07-15T11:42:44.686Z,26.30
2018-07-15T11:45:13.990Z,26.40
2018-07-15T11:47:43.281Z,26.50
2018-07-15T11:50:12.722Z,26.50
2018-07-15T11:52:42.013Z,26.50
2018-07-15T11:55:11.310Z,26.70
2018-07-15T11:57:40.604Z,26.70
2018-07-15T12:00:10.231Z,26.80
2018-07-15T12:02:39.692Z,27.10
2018-07-15T12:05:09.702Z,27.20
2018-07-15T12:07:40.004Z,27.30
2018-07-15T12:10:09.249Z,27.60
2018-07-15T12:12:38.586Z,27.80
2018-07-15T12:15:08.022Z,27.80
2018-07-15T12:17:37.262Z,27.60
2018-07-15T12:20:06.643Z,27.70
2018-07-15T12:40:41.365Z,27.90
2018-07-15T12:43:10.720Z,27.80
2018-07-15T13:03:44.933Z,28.90
2018-07-15T13:24:26.232Z,29.70
2018-07-15T13:47:28.794Z,30.90
2018-07-15T13:49:58.095Z,31.60
2018-07-15T13:52:27.406Z,31.70
2018-07-15T13:54:56.654Z,31.90
2018-07-15T13:57:25.931Z,31.80
2018-07-15T13:59:56.670Z,32.00
2018-07-15T14:02:27.482Z,32.10
2018-07-15T14:04:56.884Z,32.50
2018-07-15T14:07:26.182Z,32.60
2018-07-15T14:09:55.429Z,32.10
2018-07-15T14:12:24.797Z,32.30
2018-07-15T14:14:54.003Z,32.60
2018-07-15T14:17:24.529Z,33.00
2018-07-15T14:19:54.738Z,33.10
2018-07-15T14:40:27.304Z,28.90
2018-07-15T14:42:57.118Z,28.80
2018-07-15T14:45:26.576Z,29.30
2018-07-15T14:47:55.765Z,29.80
2018-07-15T14:50:25.031Z,30.00
2018-07-15T15:11:01.045Z,35.40
2018-07-15T15:13:30.625Z,34.70
2018-07-15T15:16:00.149Z,34.10
2018-07-15T15:18:29.486Z,34.50
2018-07-15T15:20:58.728Z,34.90
2018-07-15T15:23:28.259Z,34.50
2018-07-15T15:44:02.871Z,35.00
2018-07-15T15:46:33.107Z,34.90
2018-07-15T15:49:02.336Z,34.90
2018-07-15T15:51:31.518Z,34.40
2018-07-15T15:54:02.142Z,34.00
2018-07-15T15:56:31.426Z,34.10
2018-07-15T15:59:01.337Z,34.20
2018-07-15T16:01:30.606Z,33.90
2018-07-15T16:03:59.902Z,33.70
2018-07-15T16:06:29.158Z,32.90
2018-07-15T16:08:59.208Z,31.40
2018-07-15T16:11:28.562Z,29.60
2018-07-15T16:13:57.819Z,27.50
2018-07-15T16:16:27.681Z,26.20
2018-07-15T16:18:57.795Z,25.40
2018-07-15T16:21:27.030Z,24.90
2018-07-15T16:23:56.228Z,24.30
2018-07-15T16:26:25.737Z,24.00
2018-07-15T16:28:55.084Z,23.70
2018-07-15T16:31:26.635Z,24.10
2018-07-15T16:33:56.667Z,24.00
2018-07-15T16:36:25.925Z,23.70
2018-07-15T16:38:55.706Z,23.40
2018-07-15T16:41:25.049Z,23.70
2018-07-15T16:43:54.304Z,23.60
2018-07-15T16:46:24.234Z,23.30
2018-07-15T16:48:53.577Z,23.10
2018-07-15T16:51:22.876Z,23.10
2018-07-15T16:53:52.125Z,23.00
2018-07-15T16:56:21.383Z,22.20
2018-07-15T16:58:50.697Z,22.20
2018-07-15T17:01:22.478Z,22.30
2018-07-15T17:03:51.704Z,22.50
2018-07-15T17:06:20.933Z,22.50
2018-07-15T17:08:50.860Z,22.40
2018-07-15T17:11:20.305Z,22.20
2018-07-15T17:16:19.323Z,21.50
2018-07-15T17:18:48.568Z,21.50
2018-07-15T17:21:18.077Z,21.50
2018-07-15T17:23:47.949Z,21.40
2018-07-15T17:26:17.171Z,21.30
2018-07-15T17:28:46.527Z,21.50
2018-07-15T17:49:20.282Z,22.20
2018-07-15T17:51:50.837Z,22.10
2018-07-15T17:54:21.628Z,22.20
2018-07-15T17:56:51.871Z,22.10
2018-07-15T17:59:21.326Z,22.10
2018-07-15T18:01:50.590Z,22.10
2018-07-15T18:04:20.047Z,22.00
2018-07-15T18:06:50.256Z,22.00
2018-07-15T18:09:19.506Z,21.90
2018-07-15T18:11:48.904Z,21.70
2018-07-15T18:14:20.014Z,21.60
2018-07-15T18:19:19.188Z,21.80
2018-07-15T18:39:53.372Z,21.20
2018-07-15T18:42:23.015Z,21.10
2018-07-15T18:44:52.376Z,21.00
2018-07-15T18:49:50.685Z,20.90
2018-07-15T18:52:19.998Z,20.90
2018-07-15T18:54:49.275Z,21.10
2018-07-15T18:57:18.551Z,21.20
2018-07-15T19:17:51.742Z,21.20
2018-07-15T19:20:21.353Z,21.10
2018-07-15T19:22:50.609Z,21.00
2018-07-15T19:25:20.752Z,20.90
2018-07-15T19:27:50.155Z,20.90
2018-07-15T19:30:19.665Z,20.90
2018-07-15T19:50:53.581Z,21.30
2018-07-15T19:53:23.595Z,21.30
2018-07-15T19:55:53.000Z,21.40
2018-07-15T20:16:26.907Z,21.30
2018-07-15T20:18:56.486Z,21.30
2018-07-15T20:21:25.713Z,21.30
2018-07-15T20:23:55.522Z,21.40
2018-07-15T20:44:29.768Z,19.90
2018-07-15T20:47:00.258Z,19.60
2018-07-15T20:49:29.594Z,19.40
2018-07-15T20:51:58.865Z,19.20
2018-07-15T20:54:28.291Z,19.10
2018-07-15T20:56:57.902Z,19.00
2018-07-15T20:59:27.797Z,19.00
2018-07-15T21:01:56.972Z,19.00
2018-07-15T21:04:26.242Z,19.00
2018-07-15T21:06:55.630Z,18.90
2018-07-15T21:09:25.067Z,19.00
2018-07-15T21:11:54.403Z,19.00
2018-07-15T21:14:23.948Z,19.00
2018-07-15T21:34:57.538Z,18.90
2018-07-15T21:55:30.833Z,19.30
2018-07-15T21:58:00.070Z,19.30
2018-07-15T22:18:34.446Z,19.00
2018-07-15T22:21:03.677Z,19.00
2018-07-15T22:23:35.731Z,19.10
2018-07-15T22:44:08.654Z,19.10
2018-07-15T22:46:38.118Z,19.10
2018-07-15T22:49:07.486Z,19.10
2018-07-15T22:51:38.178Z,19.10
2018-07-15T22:54:07.518Z,19.00
2018-07-15T22:56:36.750Z,19.00
2018-07-15T22:59:06.146Z,18.90
2018-07-15T23:01:35.463Z,18.80
2018-07-15T23:04:05.060Z,18.80
2018-07-15T23:06:38.474Z,18.70
2018-07-15T23:09:09.696Z,18.70
2018-07-15T23:11:38.992Z,18.60
2018-07-15T23:14:09.202Z,18.60
2018-07-15T23:16:38.496Z,18.60
2018-07-15T23:21:37.419Z,18.60
2018-07-15T23:24:07.685Z,18.70
2018-07-15T23:26:37.581Z,18.80
2018-07-15T23:29:07.254Z,18.60
2018-07-15T23:31:37.030Z,18.60
2018-07-15T23:34:07.761Z,18.50
2018-07-15T23:36:37.065Z,18.50
2018-07-15T23:39:06.549Z,18.50
2018-07-15T23:59:41.234Z,18.50
